Grand Junction, CO

8:38 AM MDT on August 28, 2014 (GMT -0600)
Walker | Change Station
CLOSE
Current Station
Airport
Location: Grand Junction,
Elevation: 4856 ft
Nearby Weather Stations

Elev 4856 ft 39.13 °N, 108.54 °W | Updated 45 minutes ago

Overcast
Overcast
57 °F
Feels Like 57 °F
N
4
Wind Variable Wind from East

Today
High -- | Low -- °F
--% Chance of Precip.
Yesterday
High -- | Low -- °F
Precip. -- in
6:39 AM 7:50 PM
Waxing Crescent, 8% visible
Pressure 30.14 in
Visibility 10.0 miles
Clouds Overcast 7500 ft
Dew Point 55 °F
Humidity 93%
Rainfall 0.01 in
Snow Depth Not available.
UV 0 out of 12
Pollen 9.10 out of 12
Air Quality Not available.
Flu Activity Not available.
METAR KGJT 281353Z 09003KT 10SM OVC075 14/13 A3025 RMK AO2 SLP205 T01390128

More Conditions Fewer Conditions

Pressure 30.14 in
Visibility 10.0 miles
Clouds Overcast 7500 ft
Dew Point 55 °F
Humidity 93%
Rainfall 0.01 in
Snow Depth Not available.
UV 0 out of 12
Pollen 9.10 out of 12
Air Quality Not available.
Flu Activity Not available.
METAR KGJT 281353Z 09003KT 10SM OVC075 14/13 A3025 RMK AO2 SLP205 T01390128

More Conditions Fewer Conditions

10-Day Weather Forecast

Almanac

Astronomy

Aug. 28, 2014 Rise Set
Actual Time 6:39 AM MDT 7:50 PM MDT
Civil Twilight 6:11 AM MDT 8:18 PM MDT
Nautical Twilight 5:38 AM MDT 8:51 PM MDT
Astronomical Twilight 5:04 AM MDT 9:25 PM MDT
Moon 9:33 AM MDT 9:18 PM MDT
Length of Visible Light 14h 06m
Length of Day
13h 11m
Tomorrow will be 2m 24s shorter.
Waxing Crescent, 8% of the Moon is Illuminated
Today
Waxing Crescent
Sep 2
First Quarter
Sep 8
Full
Sep 15
Last Quarter
Sep 24
New

Today's Extremes

State Highs State Lows

Community

WunderPhotos

Upload Photos

1,747,963 photos uploaded!

Nearby

Snow Depth

Station Depth Elevation
Mesa Lakes 0 in 10000 ft
Park Reservoir 0 in 9960 ft
Columbine Pass 1 in 9400 ft
Overland Reservoir 0 in 9880 ft
McClure Pass 0 in 9500 ft

Earthquake Activity

City Distance Mag. Time & Date
No recent earthquake activity has been reported nearby.
Minimum magnitude displayed is 2.5.

Coastal Water Temperatures

Place Temperature
No Stations Reporting

Nearby Weather Stations